Aérodrome :
LOGIN :

S'inscrire | Disclaimer

   EN    FR    IT 

 










Légende :    VFR   VFR Marginal   IFR   IFR Intensif   IFR Très Intensif
Visi : 
Plafond : 
>= 8 km
>= 3000ft
5 à 8 km
1000 à 3000 ft
1500m à 5 km
500 à 1000 ft
800 à 1500m
200 à 500 ft
< 800m
< 200 ft
Symboles :   Orages  Brouillard  Fortes neiges  Fortes précipitations  Vent > 20 kt
SIGMETs :   Divers  Orages  Givrage  Turbulence  Onde Orograph.  Cendres Volcan.






- Altitude de l'aérodrome : 266 ft
- Code IATA : NCL


EGNT - Newcastle

DERNIER METAR :
  • 181150Z 04011KT 9999 FEW020 15/10 Q1019

METARs EXPIRÉS :
  • 181120Z 03011KT 9999 SCT020 15/09 Q1019
  • 181050Z 02010KT 350V060 9999 SCT023 16/09 Q1019
  • 181020Z 03010KT 9999 SCT024 16/09 Q1019
  • 180950Z 03007KT 350V060 9999 FEW020 16/10 Q1019
  • 180920Z 01006KT 320V060 9999 FEW021 15/09 Q1019

TAF TAF EGNT
Valide du 18 à 12h jusqu'au 19 à 12h UTC


181055Z 1812/1912 01009KT 9999 FEW030
PROB40
TEMPO 1815/1908 BKN014
PROB30
TEMPO 1820/1903 7000 RA BKN009
ATIS : +44 191 214 3400



MET'MAP, la Météo Aéronautique d'un coup d'oeil ! - Copyright ORBIFLY Décembre 2007 - Disclaimer

ORBIFLY MET'MAP TEAM :

Programmation & Développement : Alexandra Zaïnal
Sur une idée originale de : Baudouin d'Aumeries
Assistance à la programmation : Marc-Olivier Méhu
Soutien technique & logistique : Manuel Goepfert

Contact : metmap@orbifly.com




SOURCES & CREDITS :

   NOAA